Overview Statistics Trail Chart Weather Telemetry Raw packets
 

This is the latest recevied weather packets stored in our database for station/object IW1RCO-13. If no packets are shown the sender has not sent any weather packets the latest 10 day(s).

<< 1 2 3 4 5 6 7 >>
Time Temp. Humidity Pressure Rain* Wind** Luminosity Snow
1788672268 20° C 81% 1019.7 hPa - - - -
1788671971 20.56° C 80% 1019.5 hPa - - - -
1788671371 20.56° C 80% 1020.2 hPa - - - -
1788671067 21.11° C 77% 1020.2 hPa - - - -
1788670771 21.67° C 74% 1019.7 hPa - - - -
1788670467 21.67° C 72% 1019.8 hPa - - - -
1788670170 21.67° C 71% 1019.9 hPa - - - -
1788669873 21.67° C 71% 1019.8 hPa - - - -
1788669570 22.78° C 68% 1019.7 hPa - - - -
1788669273 22.78° C 68% 1020 hPa - - - -
1788668970 22.22° C 69% 1019.7 hPa - - - -
1788668673 22.22° C 71% 1019.8 hPa - - - -
1788668369 22.22° C 72% 1020 hPa - - - -
1788668073 22.78° C 71% 1019.6 hPa - - - -
1788667769 22.22° C 69% 1020.2 hPa - - - -
1788667472 22.22° C 70% 1019.5 hPa - - - -
1788667169 22.22° C 72% 1020 hPa - - - -
1788666872 21.67° C 74% 1019.6 hPa - - - -
1788666569 22.22° C 78% 1019.8 hPa - - - -
1788666272 22.22° C 76% 1019.8 hPa - - - -
1788665968 22.22° C 71% 1019.6 hPa - - - -
1788665672 22.78° C 71% 1019.4 hPa - - - -
1788662070 20° C 89% 1019.5 hPa - - - -
1788661773 20° C 90% 1019.6 hPa - - - -
1788661470 20° C 89% 1019.4 hPa - - - -

* Rain since midnight (hover to see other rain measurements)
** Current wind speed in m/s (hover to see current wind gust speed)